sensor_id;sensor_type;location;lat;lon;timestamp;P1;durP1;ratioP1;P2;durP2;ratioP2
12437;SDS011;6283;51.330;12.374;2023-12-20T00:00:25;7.43;;;4.93;;
12437;SDS011;6283;51.330;12.374;2023-12-20T00:02:50;8.53;;;5.43;;
12437;SDS011;6283;51.330;12.374;2023-12-20T00:05:16;6.93;;;5.03;;
12437;SDS011;6283;51.330;12.374;2023-12-20T00:07:42;7.27;;;4.60;;
12437;SDS011;6283;51.330;12.374;2023-12-20T00:10:08;6.67;;;4.90;;
12437;SDS011;6283;51.330;12.374;2023-12-20T00:12:34;6.83;;;4.83;;
12437;SDS011;6283;51.330;12.374;2023-12-20T00:15:00;6.70;;;4.33;;
12437;SDS011;6283;51.330;12.374;2023-12-20T00:17:25;6.30;;;4.40;;
12437;SDS011;6283;51.330;12.374;2023-12-20T00:19:51;6.43;;;4.50;;
12437;SDS011;6283;51.330;12.374;2023-12-20T00:22:17;5.50;;;3.53;;
12437;SDS011;6283;51.330;12.374;2023-12-20T00:24:42;6.03;;;4.00;;
12437;SDS011;6283;51.330;12.374;2023-12-20T00:27:08;5.70;;;4.00;;
12437;SDS011;6283;51.330;12.374;2023-12-20T00:29:33;5.07;;;3.90;;
12437;SDS011;6283;51.330;12.374;2023-12-20T00:31:59;5.53;;;3.83;;
12437;SDS011;6283;51.330;12.374;2023-12-20T00:34:24;4.33;;;3.43;;
12437;SDS011;6283;51.330;12.374;2023-12-20T00:36:50;4.03;;;3.30;;
12437;SDS011;6283;51.330;12.374;2023-12-20T00:39:16;5.83;;;3.80;;
12437;SDS011;6283;51.330;12.374;2023-12-20T00:41:41;4.27;;;3.10;;
12437;SDS011;6283;51.330;12.374;2023-12-20T00:44:07;3.73;;;2.90;;
12437;SDS011;6283;51.330;12.374;2023-12-20T00:46:32;3.53;;;2.70;;
12437;SDS011;6283;51.330;12.374;2023-12-20T00:48:58;4.30;;;3.13;;
12437;SDS011;6283;51.330;12.374;2023-12-20T00:51:24;3.10;;;2.80;;
12437;SDS011;6283;51.330;12.374;2023-12-20T00:53:49;4.47;;;2.93;;
12437;SDS011;6283;51.330;12.374;2023-12-20T00:56:19;2.90;;;2.67;;
12437;SDS011;6283;51.330;12.374;2023-12-20T00:58:45;2.73;;;2.47;;
12437;SDS011;6283;51.330;12.374;2023-12-20T01:01:11;3.53;;;2.50;;
12437;SDS011;6283;51.330;12.374;2023-12-20T01:03:36;3.47;;;2.97;;
12437;SDS011;6283;51.330;12.374;2023-12-20T01:06:02;3.20;;;2.43;;
12437;SDS011;6283;51.330;12.374;2023-12-20T01:08:29;2.70;;;2.27;;
12437;SDS011;6283;51.330;12.374;2023-12-20T01:10:55;4.13;;;2.80;;
12437;SDS011;6283;51.330;12.374;2023-12-20T01:13:20;2.47;;;2.20;;
12437;SDS011;6283;51.330;12.374;2023-12-20T01:15:46;2.77;;;2.30;;
12437;SDS011;6283;51.330;12.374;2023-12-20T01:18:13;2.80;;;2.17;;
12437;SDS011;6283;51.330;12.374;2023-12-20T01:20:39;2.80;;;2.40;;
12437;SDS011;6283;51.330;12.374;2023-12-20T01:23:04;2.40;;;2.20;;
12437;SDS011;6283;51.330;12.374;2023-12-20T01:25:30;4.23;;;2.63;;
12437;SDS011;6283;51.330;12.374;2023-12-20T01:27:55;3.77;;;2.00;;
12437;SDS011;6283;51.330;12.374;2023-12-20T01:30:21;2.47;;;2.20;;
12437;SDS011;6283;51.330;12.374;2023-12-20T01:32:46;2.03;;;1.83;;
12437;SDS011;6283;51.330;12.374;2023-12-20T01:35:12;2.03;;;1.90;;
12437;SDS011;6283;51.330;12.374;2023-12-20T01:37:38;2.47;;;2.10;;
12437;SDS011;6283;51.330;12.374;2023-12-20T01:40:04;3.00;;;2.13;;
12437;SDS011;6283;51.330;12.374;2023-12-20T01:42:30;2.83;;;2.13;;
12437;SDS011;6283;51.330;12.374;2023-12-20T01:44:55;2.47;;;2.27;;
12437;SDS011;6283;51.330;12.374;2023-12-20T01:47:21;2.97;;;2.30;;
12437;SDS011;6283;51.330;12.374;2023-12-20T01:49:47;2.30;;;1.97;;
12437;SDS011;6283;51.330;12.374;2023-12-20T01:52:13;2.23;;;1.87;;
12437;SDS011;6283;51.330;12.374;2023-12-20T01:54:39;2.30;;;2.10;;
12437;SDS011;6283;51.330;12.374;2023-12-20T01:57:06;2.10;;;1.90;;
12437;SDS011;6283;51.330;12.374;2023-12-20T01:59:33;3.10;;;2.47;;
12437;SDS011;6283;51.330;12.374;2023-12-20T02:02:00;2.23;;;1.97;;
12437;SDS011;6283;51.330;12.374;2023-12-20T02:04:25;2.30;;;2.00;;
12437;SDS011;6283;51.330;12.374;2023-12-20T02:06:52;1.97;;;1.70;;
12437;SDS011;6283;51.330;12.374;2023-12-20T02:09:18;2.17;;;1.97;;
12437;SDS011;6283;51.330;12.374;2023-12-20T02:11:44;2.30;;;2.10;;
12437;SDS011;6283;51.330;12.374;2023-12-20T02:14:09;1.90;;;1.70;;
12437;SDS011;6283;51.330;12.374;2023-12-20T02:16:35;2.57;;;1.97;;
12437;SDS011;6283;51.330;12.374;2023-12-20T02:19:02;2.07;;;1.60;;
12437;SDS011;6283;51.330;12.374;2023-12-20T02:21:32;2.20;;;2.00;;
12437;SDS011;6283;51.330;12.374;2023-12-20T02:23:59;4.00;;;1.97;;
12437;SDS011;6283;51.330;12.374;2023-12-20T02:26:24;2.20;;;2.00;;
12437;SDS011;6283;51.330;12.374;2023-12-20T02:28:50;2.00;;;1.80;;
12437;SDS011;6283;51.330;12.374;2023-12-20T02:31:15;1.60;;;1.50;;
12437;SDS011;6283;51.330;12.374;2023-12-20T02:33:41;1.97;;;1.77;;
12437;SDS011;6283;51.330;12.374;2023-12-20T02:36:07;1.90;;;1.70;;
12437;SDS011;6283;51.330;12.374;2023-12-20T02:38:32;2.07;;;1.73;;
12437;SDS011;6283;51.330;12.374;2023-12-20T02:40:59;1.70;;;1.60;;
12437;SDS011;6283;51.330;12.374;2023-12-20T02:43:24;1.93;;;1.60;;
12437;SDS011;6283;51.330;12.374;2023-12-20T02:45:50;2.53;;;1.80;;
12437;SDS011;6283;51.330;12.374;2023-12-20T02:48:16;1.67;;;1.53;;
12437;SDS011;6283;51.330;12.374;2023-12-20T02:50:41;1.70;;;1.60;;
12437;SDS011;6283;51.330;12.374;2023-12-20T02:53:07;2.70;;;1.87;;
12437;SDS011;6283;51.330;12.374;2023-12-20T02:55:32;1.97;;;1.73;;
12437;SDS011;6283;51.330;12.374;2023-12-20T02:57:58;2.20;;;1.97;;
12437;SDS011;6283;51.330;12.374;2023-12-20T03:00:24;2.03;;;1.70;;
12437;SDS011;6283;51.330;12.374;2023-12-20T03:02:49;2.27;;;1.50;;
12437;SDS011;6283;51.330;12.374;2023-12-20T03:05:15;2.03;;;1.57;;
12437;SDS011;6283;51.330;12.374;2023-12-20T03:07:40;3.57;;;2.00;;
12437;SDS011;6283;51.330;12.374;2023-12-20T03:10:06;1.60;;;1.50;;
12437;SDS011;6283;51.330;12.374;2023-12-20T03:12:33;2.10;;;1.63;;
12437;SDS011;6283;51.330;12.374;2023-12-20T03:14:58;2.50;;;1.90;;
12437;SDS011;6283;51.330;12.374;2023-12-20T03:17:24;1.80;;;1.70;;
12437;SDS011;6283;51.330;12.374;2023-12-20T03:19:50;1.97;;;1.60;;
12437;SDS011;6283;51.330;12.374;2023-12-20T03:22:15;2.07;;;1.60;;
12437;SDS011;6283;51.330;12.374;2023-12-20T03:24:41;2.30;;;1.80;;
12437;SDS011;6283;51.330;12.374;2023-12-20T03:27:06;2.20;;;1.80;;
12437;SDS011;6283;51.330;12.374;2023-12-20T03:29:32;2.43;;;1.40;;
12437;SDS011;6283;51.330;12.374;2023-12-20T03:31:57;3.17;;;1.87;;
12437;SDS011;6283;51.330;12.374;2023-12-20T03:34:23;1.40;;;1.30;;
12437;SDS011;6283;51.330;12.374;2023-12-20T03:36:48;2.30;;;1.87;;
12437;SDS011;6283;51.330;12.374;2023-12-20T03:39:14;1.70;;;1.60;;
12437;SDS011;6283;51.330;12.374;2023-12-20T03:41:40;1.70;;;1.60;;
12437;SDS011;6283;51.330;12.374;2023-12-20T03:44:05;2.87;;;1.70;;
12437;SDS011;6283;51.330;12.374;2023-12-20T03:46:31;1.93;;;1.70;;
12437;SDS011;6283;51.330;12.374;2023-12-20T03:48:56;2.60;;;1.90;;
12437;SDS011;6283;51.330;12.374;2023-12-20T03:51:22;2.20;;;1.70;;
12437;SDS011;6283;51.330;12.374;2023-12-20T03:53:47;2.27;;;2.07;;
12437;SDS011;6283;51.330;12.374;2023-12-20T03:56:13;2.40;;;1.87;;
12437;SDS011;6283;51.330;12.374;2023-12-20T03:58:39;2.17;;;1.97;;
12437;SDS011;6283;51.330;12.374;2023-12-20T04:01:08;3.07;;;2.30;;
12437;SDS011;6283;51.330;12.374;2023-12-20T04:03:35;2.70;;;2.23;;
12437;SDS011;6283;51.330;12.374;2023-12-20T04:06:01;2.30;;;2.07;;
12437;SDS011;6283;51.330;12.374;2023-12-20T04:08:26;2.47;;;2.03;;
12437;SDS011;6283;51.330;12.374;2023-12-20T04:10:52;3.00;;;2.40;;
12437;SDS011;6283;51.330;12.374;2023-12-20T04:13:18;2.70;;;2.30;;
12437;SDS011;6283;51.330;12.374;2023-12-20T04:15:43;3.40;;;2.27;;
12437;SDS011;6283;51.330;12.374;2023-12-20T04:18:09;3.00;;;2.70;;
12437;SDS011;6283;51.330;12.374;2023-12-20T04:20:35;4.03;;;2.73;;
12437;SDS011;6283;51.330;12.374;2023-12-20T04:23:00;2.83;;;2.60;;
12437;SDS011;6283;51.330;12.374;2023-12-20T04:25:26;3.73;;;2.83;;
12437;SDS011;6283;51.330;12.374;2023-12-20T04:27:51;3.43;;;2.90;;
12437;SDS011;6283;51.330;12.374;2023-12-20T04:30:17;3.07;;;2.70;;
12437;SDS011;6283;51.330;12.374;2023-12-20T04:32:42;3.40;;;2.77;;
12437;SDS011;6283;51.330;12.374;2023-12-20T04:35:08;3.47;;;2.47;;
12437;SDS011;6283;51.330;12.374;2023-12-20T04:37:34;4.20;;;2.87;;
12437;SDS011;6283;51.330;12.374;2023-12-20T04:39:59;3.80;;;3.20;;
12437;SDS011;6283;51.330;12.374;2023-12-20T04:42:25;3.07;;;2.43;;
12437;SDS011;6283;51.330;12.374;2023-12-20T04:44:50;3.50;;;2.80;;
12437;SDS011;6283;51.330;12.374;2023-12-20T04:47:16;2.73;;;2.40;;
12437;SDS011;6283;51.330;12.374;2023-12-20T04:49:42;3.07;;;2.63;;
12437;SDS011;6283;51.330;12.374;2023-12-20T04:52:07;4.90;;;3.00;;
12437;SDS011;6283;51.330;12.374;2023-12-20T04:54:33;4.07;;;3.07;;
12437;SDS011;6283;51.330;12.374;2023-12-20T04:56:58;3.50;;;3.20;;
12437;SDS011;6283;51.330;12.374;2023-12-20T04:59:24;4.43;;;3.40;;
12437;SDS011;6283;51.330;12.374;2023-12-20T05:01:49;4.90;;;3.57;;
12437;SDS011;6283;51.330;12.374;2023-12-20T05:04:15;3.80;;;3.20;;
12437;SDS011;6283;51.330;12.374;2023-12-20T05:06:40;5.03;;;3.40;;
12437;SDS011;6283;51.330;12.374;2023-12-20T05:09:06;4.17;;;3.23;;
12437;SDS011;6283;51.330;12.374;2023-12-20T05:11:32;4.87;;;3.43;;
12437;SDS011;6283;51.330;12.374;2023-12-20T05:13:57;5.07;;;4.00;;
12437;SDS011;6283;51.330;12.374;2023-12-20T05:16:23;4.97;;;3.70;;
12437;SDS011;6283;51.330;12.374;2023-12-20T05:18:48;6.03;;;3.73;;
12437;SDS011;6283;51.330;12.374;2023-12-20T05:21:17;4.47;;;3.60;;
12437;SDS011;6283;51.330;12.374;2023-12-20T05:23:43;4.83;;;3.90;;
12437;SDS011;6283;51.330;12.374;2023-12-20T05:26:09;5.03;;;3.80;;
12437;SDS011;6283;51.330;12.374;2023-12-20T05:28:34;5.63;;;3.97;;
12437;SDS011;6283;51.330;12.374;2023-12-20T05:31:00;4.63;;;3.30;;
12437;SDS011;6283;51.330;12.374;2023-12-20T05:33:26;5.23;;;3.87;;
12437;SDS011;6283;51.330;12.374;2023-12-20T05:35:51;5.47;;;3.60;;
12437;SDS011;6283;51.330;12.374;2023-12-20T05:38:17;6.03;;;4.00;;
12437;SDS011;6283;51.330;12.374;2023-12-20T05:40:43;6.47;;;4.33;;
12437;SDS011;6283;51.330;12.374;2023-12-20T05:43:08;3.57;;;3.23;;
12437;SDS011;6283;51.330;12.374;2023-12-20T05:45:34;5.70;;;4.27;;
12437;SDS011;6283;51.330;12.374;2023-12-20T05:47:59;6.20;;;4.70;;
12437;SDS011;6283;51.330;12.374;2023-12-20T05:50:25;4.87;;;4.00;;
12437;SDS011;6283;51.330;12.374;2023-12-20T05:52:50;5.30;;;3.97;;
12437;SDS011;6283;51.330;12.374;2023-12-20T05:55:16;5.60;;;4.00;;
12437;SDS011;6283;51.330;12.374;2023-12-20T05:57:41;5.40;;;3.73;;
12437;SDS011;6283;51.330;12.374;2023-12-20T06:00:08;4.63;;;3.73;;
12437;SDS011;6283;51.330;12.374;2023-12-20T06:02:34;8.33;;;3.93;;
12437;SDS011;6283;51.330;12.374;2023-12-20T06:05:01;6.80;;;4.00;;
12437;SDS011;6283;51.330;12.374;2023-12-20T06:07:29;4.43;;;3.53;;
12437;SDS011;6283;51.330;12.374;2023-12-20T06:09:54;5.07;;;3.30;;
12437;SDS011;6283;51.330;12.374;2023-12-20T06:12:20;4.97;;;3.70;;
12437;SDS011;6283;51.330;12.374;2023-12-20T06:14:45;5.23;;;3.83;;
12437;SDS011;6283;51.330;12.374;2023-12-20T06:17:11;6.07;;;4.17;;
12437;SDS011;6283;51.330;12.374;2023-12-20T06:19:37;4.43;;;3.63;;
12437;SDS011;6283;51.330;12.374;2023-12-20T06:22:02;4.30;;;3.47;;
12437;SDS011;6283;51.330;12.374;2023-12-20T06:24:28;4.87;;;3.80;;
12437;SDS011;6283;51.330;12.374;2023-12-20T06:26:54;3.90;;;3.20;;
12437;SDS011;6283;51.330;12.374;2023-12-20T06:29:20;3.57;;;3.23;;
12437;SDS011;6283;51.330;12.374;2023-12-20T06:31:46;4.33;;;3.40;;
12437;SDS011;6283;51.330;12.374;2023-12-20T06:34:11;4.10;;;3.20;;
12437;SDS011;6283;51.330;12.374;2023-12-20T06:36:37;3.30;;;2.93;;
12437;SDS011;6283;51.330;12.374;2023-12-20T06:39:03;4.07;;;3.30;;
12437;SDS011;6283;51.330;12.374;2023-12-20T06:41:29;3.83;;;3.20;;
12437;SDS011;6283;51.330;12.374;2023-12-20T06:43:55;4.43;;;3.13;;
12437;SDS011;6283;51.330;12.374;2023-12-20T06:46:20;2.90;;;2.50;;
12437;SDS011;6283;51.330;12.374;2023-12-20T06:48:46;4.40;;;3.33;;
12437;SDS011;6283;51.330;12.374;2023-12-20T06:51:15;3.87;;;2.97;;
12437;SDS011;6283;51.330;12.374;2023-12-20T06:53:41;5.07;;;2.57;;
12437;SDS011;6283;51.330;12.374;2023-12-20T06:56:07;3.33;;;2.73;;
12437;SDS011;6283;51.330;12.374;2023-12-20T06:58:34;4.13;;;3.30;;
12437;SDS011;6283;51.330;12.374;2023-12-20T07:01:00;3.67;;;2.80;;
12437;SDS011;6283;51.330;12.374;2023-12-20T07:03:25;4.83;;;3.30;;
12437;SDS011;6283;51.330;12.374;2023-12-20T07:05:51;4.27;;;2.97;;
12437;SDS011;6283;51.330;12.374;2023-12-20T07:08:17;3.97;;;2.70;;
12437;SDS011;6283;51.330;12.374;2023-12-20T07:10:42;4.33;;;2.73;;
12437;SDS011;6283;51.330;12.374;2023-12-20T07:13:08;5.30;;;2.80;;
12437;SDS011;6283;51.330;12.374;2023-12-20T07:15:34;5.87;;;3.40;;
12437;SDS011;6283;51.330;12.374;2023-12-20T07:18:00;4.13;;;2.50;;
12437;SDS011;6283;51.330;12.374;2023-12-20T07:20:26;4.60;;;2.80;;
12437;SDS011;6283;51.330;12.374;2023-12-20T07:22:52;3.97;;;2.20;;
12437;SDS011;6283;51.330;12.374;2023-12-20T07:25:17;4.23;;;2.13;;
12437;SDS011;6283;51.330;12.374;2023-12-20T07:27:43;3.07;;;2.00;;
12437;SDS011;6283;51.330;12.374;2023-12-20T07:30:08;3.23;;;2.00;;
12437;SDS011;6283;51.330;12.374;2023-12-20T07:32:35;3.53;;;2.20;;
12437;SDS011;6283;51.330;12.374;2023-12-20T07:35:00;2.90;;;1.80;;
12437;SDS011;6283;51.330;12.374;2023-12-20T07:37:27;2.87;;;1.73;;
12437;SDS011;6283;51.330;12.374;2023-12-20T07:39:52;4.47;;;1.57;;
12437;SDS011;6283;51.330;12.374;2023-12-20T07:42:18;2.20;;;1.60;;
12437;SDS011;6283;51.330;12.374;2023-12-20T07:44:44;3.20;;;1.60;;
12437;SDS011;6283;51.330;12.374;2023-12-20T07:47:10;3.60;;;2.00;;
12437;SDS011;6283;51.330;12.374;2023-12-20T07:49:37;2.87;;;1.53;;
12437;SDS011;6283;51.330;12.374;2023-12-20T07:52:02;3.90;;;1.63;;
12437;SDS011;6283;51.330;12.374;2023-12-20T07:54:28;4.03;;;1.90;;
12437;SDS011;6283;51.330;12.374;2023-12-20T07:56:54;2.10;;;1.50;;
12437;SDS011;6283;51.330;12.374;2023-12-20T07:59:20;3.97;;;1.67;;
12437;SDS011;6283;51.330;12.374;2023-12-20T08:01:46;2.07;;;1.60;;
12437;SDS011;6283;51.330;12.374;2023-12-20T08:04:11;3.50;;;1.60;;
12437;SDS011;6283;51.330;12.374;2023-12-20T08:06:37;4.30;;;1.90;;
12437;SDS011;6283;51.330;12.374;2023-12-20T08:09:03;1.97;;;1.60;;
12437;SDS011;6283;51.330;12.374;2023-12-20T08:11:29;4.07;;;1.97;;
12437;SDS011;6283;51.330;12.374;2023-12-20T08:13:54;1.50;;;1.40;;
12437;SDS011;6283;51.330;12.374;2023-12-20T08:16:20;3.27;;;2.23;;
12437;SDS011;6283;51.330;12.374;2023-12-20T08:18:47;3.60;;;1.70;;
12437;SDS011;6283;51.330;12.374;2023-12-20T08:21:12;3.83;;;1.80;;
12437;SDS011;6283;51.330;12.374;2023-12-20T08:23:38;3.57;;;1.43;;
12437;SDS011;6283;51.330;12.374;2023-12-20T08:26:05;4.73;;;1.80;;
12437;SDS011;6283;51.330;12.374;2023-12-20T08:28:31;3.17;;;1.70;;
12437;SDS011;6283;51.330;12.374;2023-12-20T08:30:56;1.53;;;1.43;;
12437;SDS011;6283;51.330;12.374;2023-12-20T08:33:22;2.87;;;1.50;;
12437;SDS011;6283;51.330;12.374;2023-12-20T08:35:48;4.87;;;1.60;;
12437;SDS011;6283;51.330;12.374;2023-12-20T08:38:14;4.37;;;1.97;;
12437;SDS011;6283;51.330;12.374;2023-12-20T08:40:39;2.97;;;1.83;;
12437;SDS011;6283;51.330;12.374;2023-12-20T08:43:05;5.77;;;1.90;;
12437;SDS011;6283;51.330;12.374;2023-12-20T08:45:30;2.97;;;1.87;;
12437;SDS011;6283;51.330;12.374;2023-12-20T08:47:56;3.87;;;1.80;;
12437;SDS011;6283;51.330;12.374;2023-12-20T08:50:22;4.67;;;2.43;;
12437;SDS011;6283;51.330;12.374;2023-12-20T08:52:47;2.13;;;1.60;;
12437;SDS011;6283;51.330;12.374;2023-12-20T08:55:13;3.40;;;1.73;;
12437;SDS011;6283;51.330;12.374;2023-12-20T08:57:41;3.77;;;1.67;;
12437;SDS011;6283;51.330;12.374;2023-12-20T09:00:07;4.03;;;2.00;;
12437;SDS011;6283;51.330;12.374;2023-12-20T09:02:33;2.10;;;1.50;;
12437;SDS011;6283;51.330;12.374;2023-12-20T09:05:01;1.83;;;1.67;;
12437;SDS011;6283;51.330;12.374;2023-12-20T09:07:28;2.83;;;1.77;;
12437;SDS011;6283;51.330;12.374;2023-12-20T09:09:56;2.73;;;1.70;;
12437;SDS011;6283;51.330;12.374;2023-12-20T09:12:22;4.53;;;2.07;;
12437;SDS011;6283;51.330;12.374;2023-12-20T09:14:48;2.57;;;2.20;;
12437;SDS011;6283;51.330;12.374;2023-12-20T09:17:16;2.00;;;1.80;;
12437;SDS011;6283;51.330;12.374;2023-12-20T09:19:42;1.60;;;1.50;;
12437;SDS011;6283;51.330;12.374;2023-12-20T09:22:11;3.97;;;1.87;;
12437;SDS011;6283;51.330;12.374;2023-12-20T09:24:37;1.97;;;1.60;;
12437;SDS011;6283;51.330;12.374;2023-12-20T09:27:04;5.47;;;1.63;;
12437;SDS011;6283;51.330;12.374;2023-12-20T09:29:33;1.60;;;1.40;;
12437;SDS011;6283;51.330;12.374;2023-12-20T09:31:58;2.67;;;1.70;;
12437;SDS011;6283;51.330;12.374;2023-12-20T09:34:24;4.77;;;1.50;;
12437;SDS011;6283;51.330;12.374;2023-12-20T09:36:50;2.07;;;1.60;;
12437;SDS011;6283;51.330;12.374;2023-12-20T09:39:17;3.03;;;1.47;;
12437;SDS011;6283;51.330;12.374;2023-12-20T09:41:49;5.63;;;1.87;;
12437;SDS011;6283;51.330;12.374;2023-12-20T09:44:28;2.93;;;1.40;;
12437;SDS011;6283;51.330;12.374;2023-12-20T09:46:54;2.27;;;1.70;;
12437;SDS011;6283;51.330;12.374;2023-12-20T09:49:21;3.40;;;1.70;;
12437;SDS011;6283;51.330;12.374;2023-12-20T09:51:47;4.40;;;1.97;;
12437;SDS011;6283;51.330;12.374;2023-12-20T09:54:16;3.87;;;1.70;;
12437;SDS011;6283;51.330;12.374;2023-12-20T09:56:43;3.40;;;1.90;;
12437;SDS011;6283;51.330;12.374;2023-12-20T09:59:09;2.13;;;1.70;;
12437;SDS011;6283;51.330;12.374;2023-12-20T10:01:36;4.97;;;1.97;;
12437;SDS011;6283;51.330;12.374;2023-12-20T10:04:05;3.63;;;1.60;;
12437;SDS011;6283;51.330;12.374;2023-12-20T10:06:34;2.60;;;1.63;;
12437;SDS011;6283;51.330;12.374;2023-12-20T10:09:01;4.63;;;1.87;;
12437;SDS011;6283;51.330;12.374;2023-12-20T10:11:26;3.20;;;1.93;;
12437;SDS011;6283;51.330;12.374;2023-12-20T10:13:58;4.60;;;2.07;;
12437;SDS011;6283;51.330;12.374;2023-12-20T10:16:27;5.27;;;1.67;;
12437;SDS011;6283;51.330;12.374;2023-12-20T10:18:54;2.83;;;1.80;;
12437;SDS011;6283;51.330;12.374;2023-12-20T10:21:20;5.50;;;1.97;;
12437;SDS011;6283;51.330;12.374;2023-12-20T10:23:47;3.37;;;1.50;;
12437;SDS011;6283;51.330;12.374;2023-12-20T10:26:48;2.03;;;1.83;;
12437;SDS011;6283;51.330;12.374;2023-12-20T10:29:06;5.63;;;2.10;;
12437;SDS011;6283;51.330;12.374;2023-12-20T10:31:33;2.67;;;1.83;;
12437;SDS011;6283;51.330;12.374;2023-12-20T10:34:00;4.60;;;2.03;;
12437;SDS011;6283;51.330;12.374;2023-12-20T10:36:27;3.00;;;1.90;;
12437;SDS011;6283;51.330;12.374;2023-12-20T10:38:55;2.90;;;1.80;;
12437;SDS011;6283;51.330;12.374;2023-12-20T10:43:53;3.57;;;1.80;;
12437;SDS011;6283;51.330;12.374;2023-12-20T10:46:26;5.00;;;1.80;;
12437;SDS011;6283;51.330;12.374;2023-12-20T10:48:53;2.90;;;1.70;;
12437;SDS011;6283;51.330;12.374;2023-12-20T10:51:20;3.43;;;1.97;;
12437;SDS011;6283;51.330;12.374;2023-12-20T10:53:47;3.37;;;1.63;;
12437;SDS011;6283;51.330;12.374;2023-12-20T10:56:15;2.83;;;1.60;;
12437;SDS011;6283;51.330;12.374;2023-12-20T10:58:42;2.43;;;1.67;;
12437;SDS011;6283;51.330;12.374;2023-12-20T11:01:09;4.23;;;1.50;;
12437;SDS011;6283;51.330;12.374;2023-12-20T11:03:47;4.27;;;1.40;;
12437;SDS011;6283;51.330;12.374;2023-12-20T11:06:32;2.87;;;1.60;;
12437;SDS011;6283;51.330;12.374;2023-12-20T11:09:22;3.23;;;1.77;;
12437;SDS011;6283;51.330;12.374;2023-12-20T11:11:59;2.73;;;1.30;;
12437;SDS011;6283;51.330;12.374;2023-12-20T11:14:35;3.50;;;1.70;;
12437;SDS011;6283;51.330;12.374;2023-12-20T11:17:15;7.03;;;1.67;;
12437;SDS011;6283;51.330;12.374;2023-12-20T11:22:27;3.80;;;1.33;;
12437;SDS011;6283;51.330;12.374;2023-12-20T11:24:58;4.47;;;1.57;;
12437;SDS011;6283;51.330;12.374;2023-12-20T11:27:35;3.00;;;1.00;;
12437;SDS011;6283;51.330;12.374;2023-12-20T11:30:02;4.03;;;1.47;;
12437;SDS011;6283;51.330;12.374;2023-12-20T11:32:35;4.37;;;1.60;;
12437;SDS011;6283;51.330;12.374;2023-12-20T11:37:37;5.40;;;1.80;;
12437;SDS011;6283;51.330;12.374;2023-12-20T11:40:05;3.00;;;1.47;;
12437;SDS011;6283;51.330;12.374;2023-12-20T11:42:48;4.73;;;1.33;;
12437;SDS011;6283;51.330;12.374;2023-12-20T11:45:17;1.60;;;1.50;;
12437;SDS011;6283;51.330;12.374;2023-12-20T11:47:47;4.60;;;1.73;;
12437;SDS011;6283;51.330;12.374;2023-12-20T11:50:15;3.80;;;1.50;;
12437;SDS011;6283;51.330;12.374;2023-12-20T11:52:44;4.97;;;1.70;;
12437;SDS011;6283;51.330;12.374;2023-12-20T11:55:09;4.20;;;1.50;;
12437;SDS011;6283;51.330;12.374;2023-12-20T11:57:36;5.53;;;1.40;;
12437;SDS011;6283;51.330;12.374;2023-12-20T12:00:02;3.27;;;1.10;;
12437;SDS011;6283;51.330;12.374;2023-12-20T12:02:29;2.73;;;1.20;;
12437;SDS011;6283;51.330;12.374;2023-12-20T12:04:55;1.20;;;1.13;;
12437;SDS011;6283;51.330;12.374;2023-12-20T12:07:21;2.60;;;1.30;;
12437;SDS011;6283;51.330;12.374;2023-12-20T12:09:47;3.13;;;1.33;;
12437;SDS011;6283;51.330;12.374;2023-12-20T12:12:13;2.60;;;1.40;;
12437;SDS011;6283;51.330;12.374;2023-12-20T12:14:39;2.90;;;1.60;;
12437;SDS011;6283;51.330;12.374;2023-12-20T12:17:10;2.07;;;1.20;;
12437;SDS011;6283;51.330;12.374;2023-12-20T12:19:43;3.00;;;1.50;;
12437;SDS011;6283;51.330;12.374;2023-12-20T12:22:09;3.90;;;1.47;;
12437;SDS011;6283;51.330;12.374;2023-12-20T12:24:39;5.13;;;3.10;;
12437;SDS011;6283;51.330;12.374;2023-12-20T12:27:06;3.90;;;1.50;;
12437;SDS011;6283;51.330;12.374;2023-12-20T12:29:32;4.60;;;1.53;;
12437;SDS011;6283;51.330;12.374;2023-12-20T12:31:59;5.23;;;1.57;;
12437;SDS011;6283;51.330;12.374;2023-12-20T12:34:27;2.00;;;1.40;;
12437;SDS011;6283;51.330;12.374;2023-12-20T12:36:53;6.30;;;1.70;;
12437;SDS011;6283;51.330;12.374;2023-12-20T12:39:19;2.77;;;1.37;;
12437;SDS011;6283;51.330;12.374;2023-12-20T12:41:45;2.90;;;1.40;;
12437;SDS011;6283;51.330;12.374;2023-12-20T12:44:10;4.77;;;1.70;;
12437;SDS011;6283;51.330;12.374;2023-12-20T12:46:36;2.70;;;1.60;;
12437;SDS011;6283;51.330;12.374;2023-12-20T12:49:02;1.90;;;1.70;;
12437;SDS011;6283;51.330;12.374;2023-12-20T12:51:29;3.93;;;1.63;;
12437;SDS011;6283;51.330;12.374;2023-12-20T12:53:54;5.97;;;2.00;;
12437;SDS011;6283;51.330;12.374;2023-12-20T12:56:20;2.50;;;1.37;;
12437;SDS011;6283;51.330;12.374;2023-12-20T12:58:47;4.47;;;1.40;;
12437;SDS011;6283;51.330;12.374;2023-12-20T13:01:12;2.40;;;1.20;;
12437;SDS011;6283;51.330;12.374;2023-12-20T13:03:39;3.30;;;1.93;;
12437;SDS011;6283;51.330;12.374;2023-12-20T13:06:04;6.47;;;1.47;;
12437;SDS011;6283;51.330;12.374;2023-12-20T13:08:31;5.10;;;1.57;;
12437;SDS011;6283;51.330;12.374;2023-12-20T13:10:57;3.83;;;1.50;;
12437;SDS011;6283;51.330;12.374;2023-12-20T13:13:26;4.57;;;1.27;;
12437;SDS011;6283;51.330;12.374;2023-12-20T13:15:52;4.40;;;1.60;;
12437;SDS011;6283;51.330;12.374;2023-12-20T13:18:20;4.10;;;1.50;;
12437;SDS011;6283;51.330;12.374;2023-12-20T13:20:46;4.43;;;1.40;;
12437;SDS011;6283;51.330;12.374;2023-12-20T13:23:12;3.73;;;1.40;;
12437;SDS011;6283;51.330;12.374;2023-12-20T13:25:37;3.50;;;1.30;;
12437;SDS011;6283;51.330;12.374;2023-12-20T13:28:04;3.27;;;1.70;;
12437;SDS011;6283;51.330;12.374;2023-12-20T13:30:30;1.83;;;1.30;;
12437;SDS011;6283;51.330;12.374;2023-12-20T13:32:55;3.03;;;1.33;;
12437;SDS011;6283;51.330;12.374;2023-12-20T13:35:21;4.33;;;1.90;;
12437;SDS011;6283;51.330;12.374;2023-12-20T13:37:46;3.07;;;1.30;;
12437;SDS011;6283;51.330;12.374;2023-12-20T13:40:12;3.00;;;1.40;;
12437;SDS011;6283;51.330;12.374;2023-12-20T13:42:38;5.60;;;1.37;;
12437;SDS011;6283;51.330;12.374;2023-12-20T13:45:04;4.07;;;1.80;;
12437;SDS011;6283;51.330;12.374;2023-12-20T13:47:31;1.80;;;1.10;;
12437;SDS011;6283;51.330;12.374;2023-12-20T13:49:57;2.50;;;1.20;;
12437;SDS011;6283;51.330;12.374;2023-12-20T13:52:23;2.60;;;1.10;;
12437;SDS011;6283;51.330;12.374;2023-12-20T13:54:48;3.93;;;1.40;;
12437;SDS011;6283;51.330;12.374;2023-12-20T13:57:14;3.87;;;1.63;;
12437;SDS011;6283;51.330;12.374;2023-12-20T13:59:40;1.97;;;1.20;;
12437;SDS011;6283;51.330;12.374;2023-12-20T14:02:05;2.40;;;1.20;;
12437;SDS011;6283;51.330;12.374;2023-12-20T14:04:31;1.23;;;0.90;;
12437;SDS011;6283;51.330;12.374;2023-12-20T14:06:57;2.43;;;1.07;;
12437;SDS011;6283;51.330;12.374;2023-12-20T14:09:22;2.20;;;1.37;;
12437;SDS011;6283;51.330;12.374;2023-12-20T14:11:48;3.67;;;1.00;;
12437;SDS011;6283;51.330;12.374;2023-12-20T14:14:14;1.10;;;1.10;;
12437;SDS011;6283;51.330;12.374;2023-12-20T14:16:39;2.77;;;1.20;;
12437;SDS011;6283;51.330;12.374;2023-12-20T14:19:05;1.50;;;1.20;;
12437;SDS011;6283;51.330;12.374;2023-12-20T14:21:34;3.37;;;1.20;;
12437;SDS011;6283;51.330;12.374;2023-12-20T14:24:00;1.80;;;1.23;;
12437;SDS011;6283;51.330;12.374;2023-12-20T14:26:25;1.77;;;1.20;;
12437;SDS011;6283;51.330;12.374;2023-12-20T14:28:53;4.97;;;1.23;;
12437;SDS011;6283;51.330;12.374;2023-12-20T14:31:19;1.43;;;1.20;;
12437;SDS011;6283;51.330;12.374;2023-12-20T14:33:44;2.70;;;1.83;;
12437;SDS011;6283;51.330;12.374;2023-12-20T14:36:11;2.50;;;1.23;;
12437;SDS011;6283;51.330;12.374;2023-12-20T14:38:37;2.80;;;1.63;;
12437;SDS011;6283;51.330;12.374;2023-12-20T14:41:03;1.47;;;1.20;;
12437;SDS011;6283;51.330;12.374;2023-12-20T14:43:30;2.07;;;1.23;;
12437;SDS011;6283;51.330;12.374;2023-12-20T14:45:56;3.13;;;1.17;;
12437;SDS011;6283;51.330;12.374;2023-12-20T14:48:22;1.37;;;1.03;;
12437;SDS011;6283;51.330;12.374;2023-12-20T14:50:47;1.10;;;1.00;;